createdAt,value
2023-02-04T00:01:39.311Z,113.30
2023-02-04T00:04:08.381Z,111.07
2023-02-04T00:06:36.729Z,117.63
2023-02-04T00:09:06.244Z,116.57
2023-02-04T00:11:34.743Z,115.00
2023-02-04T00:14:03.393Z,109.47
2023-02-04T00:16:31.930Z,119.83
2023-02-04T00:19:01.972Z,124.23
2023-02-04T00:21:30.358Z,121.77
2023-02-04T00:23:59.020Z,133.33
2023-02-04T00:26:27.359Z,139.53
2023-02-04T00:28:56.277Z,138.37
2023-02-04T00:31:25.457Z,133.23
2023-02-04T00:33:54.180Z,126.23
2023-02-04T00:36:24.006Z,134.73
2023-02-04T00:38:53.331Z,137.53
2023-02-04T00:41:21.797Z,140.70
2023-02-04T00:43:50.641Z,148.83
2023-02-04T00:46:19.012Z,144.77
2023-02-04T00:48:47.656Z,122.37
2023-02-04T00:51:16.095Z,122.33
2023-02-04T00:53:46.355Z,129.40
2023-02-04T00:56:14.704Z,125.17
2023-02-04T00:58:44.352Z,124.63
2023-02-04T01:01:12.703Z,120.67
2023-02-04T01:03:41.328Z,141.83
2023-02-04T01:06:09.757Z,135.93
2023-02-04T01:08:38.801Z,136.87
2023-02-04T01:11:08.731Z,141.97
2023-02-04T01:13:37.428Z,142.47
2023-02-04T01:16:06.090Z,141.90
2023-02-04T01:18:34.878Z,142.33
2023-02-04T01:21:03.291Z,151.50
2023-02-04T01:23:32.221Z,144.00
2023-02-04T01:26:00.609Z,128.37
2023-02-04T01:28:30.668Z,140.27
2023-02-04T01:31:00.252Z,134.27
2023-02-04T01:33:30.039Z,138.03
2023-02-04T01:35:58.462Z,139.40
2023-02-04T01:38:27.199Z,132.50
2023-02-04T01:40:55.740Z,142.00
2023-02-04T01:43:25.203Z,129.50
2023-02-04T01:45:55.281Z,121.97
2023-02-04T01:48:25.250Z,123.03
2023-02-04T01:51:03.083Z,118.23
2023-02-04T01:53:32.606Z,131.83
2023-02-04T01:56:01.314Z,129.20
2023-02-04T01:58:32.740Z,127.20
2023-02-04T02:01:02.696Z,123.10
2023-02-04T02:03:32.474Z,127.50
2023-02-04T02:06:16.258Z,121.50
2023-02-04T02:08:44.940Z,124.43
2023-02-04T02:11:13.312Z,121.23
2023-02-04T02:13:42.059Z,124.97
2023-02-04T02:16:11.812Z,123.63
2023-02-04T02:18:40.810Z,130.53
2023-02-04T02:21:13.090Z,137.53
2023-02-04T02:23:53.060Z,141.17
2023-02-04T02:26:23.225Z,133.90
2023-02-04T02:28:52.902Z,139.97
2023-02-04T02:31:23.858Z,132.97
2023-02-04T02:33:52.641Z,129.93
2023-02-04T02:36:22.865Z,137.43
2023-02-04T02:38:55.961Z,131.57
2023-02-04T02:41:24.377Z,128.63
2023-02-04T02:43:53.082Z,129.83
2023-02-04T02:46:21.678Z,117.87
2023-02-04T02:48:50.475Z,136.20
2023-02-04T02:51:18.875Z,123.07
2023-02-04T02:53:51.555Z,135.43
2023-02-04T02:56:21.702Z,129.53
2023-02-04T02:58:50.455Z,134.03
2023-02-04T03:01:19.037Z,125.97
2023-02-04T03:03:51.839Z,135.23
2023-02-04T03:06:24.373Z,134.30
2023-02-04T03:08:56.851Z,126.30
2023-02-04T03:11:29.860Z,117.87
2023-02-04T03:14:01.041Z,106.23
2023-02-04T03:16:32.774Z,120.90
2023-02-04T03:19:02.795Z,120.97
2023-02-04T03:21:31.644Z,111.67
2023-02-04T03:24:00.559Z,122.93
2023-02-04T03:26:30.412Z,129.60
2023-02-04T03:29:00.529Z,126.53
2023-02-04T03:31:29.394Z,130.67
2023-02-04T03:33:58.469Z,128.10
2023-02-04T03:36:26.927Z,124.53
2023-02-04T03:38:55.636Z,128.80
2023-02-04T03:41:24.164Z,121.13
2023-02-04T03:43:54.231Z,113.00
2023-02-04T03:46:23.836Z,95.97
2023-02-04T03:48:53.109Z,103.17
2023-02-04T03:51:21.514Z,102.87
2023-02-04T03:53:50.412Z,112.17
2023-02-04T03:56:18.798Z,120.37
2023-02-04T03:58:47.418Z,118.47
2023-02-04T04:01:17.234Z,123.77
2023-02-04T04:03:46.204Z,128.77
2023-02-04T04:06:14.592Z,126.90
2023-02-04T04:08:43.255Z,111.90
2023-02-04T04:11:13.972Z,124.07
2023-02-04T04:13:42.698Z,122.90
2023-02-04T04:16:11.475Z,121.67
2023-02-04T04:18:41.794Z,122.23
2023-02-04T04:21:10.165Z,110.07
2023-02-04T04:23:39.200Z,114.00
2023-02-04T04:26:07.776Z,126.37
2023-02-04T04:28:36.488Z,121.30
2023-02-04T04:31:05.097Z,117.33
2023-02-04T04:33:33.848Z,117.40
2023-02-04T04:36:03.636Z,126.10
2023-02-04T04:38:32.303Z,110.40
2023-02-04T04:41:00.659Z,105.87
2023-02-04T04:43:29.347Z,101.00
2023-02-04T04:45:57.888Z,104.27
2023-02-04T04:48:26.639Z,107.00
2023-02-04T04:50:55.088Z,108.40
2023-02-04T04:53:25.096Z,112.63
2023-02-04T04:55:53.527Z,103.83
2023-02-04T04:58:22.173Z,103.70
2023-02-04T05:00:50.539Z,111.47
2023-02-04T05:03:19.250Z,116.40
2023-02-04T05:05:47.679Z,119.80
2023-02-04T05:08:17.036Z,114.70
2023-02-04T05:10:46.819Z,109.33
2023-02-04T05:13:16.089Z,106.27
2023-02-04T05:15:44.552Z,103.03
2023-02-04T05:18:13.332Z,93.80
2023-02-04T05:20:41.756Z,103.60
2023-02-04T05:23:10.476Z,91.13
2023-02-04T05:25:38.932Z,91.97
2023-02-04T05:28:09.100Z,97.63
2023-02-04T05:30:37.564Z,89.77
2023-02-04T05:33:06.204Z,82.10
2023-02-04T05:35:34.544Z,99.53
2023-02-04T05:38:03.127Z,78.03
2023-02-04T05:40:31.951Z,81.07
2023-02-04T05:43:01.015Z,89.80
2023-02-04T05:45:30.876Z,91.83
2023-02-04T05:47:59.589Z,97.07
2023-02-04T05:50:27.963Z,91.47
2023-02-04T05:53:10.097Z,96.60
2023-02-04T05:55:38.517Z,103.47
2023-02-04T05:58:07.222Z,104.30
2023-02-04T06:00:36.993Z,84.53
2023-02-04T06:03:05.801Z,79.13
2023-02-04T06:05:34.487Z,84.67
2023-02-04T06:08:03.191Z,75.63
2023-02-04T06:10:31.873Z,76.37
2023-02-04T06:13:00.672Z,70.20
2023-02-04T06:15:29.090Z,67.33
2023-02-04T06:17:59.448Z,72.07
2023-02-04T06:20:27.973Z,76.33
2023-02-04T06:22:56.586Z,80.17
2023-02-04T06:25:25.274Z,94.97
2023-02-04T06:27:53.978Z,101.23
2023-02-04T06:30:22.536Z,101.80
2023-02-04T06:32:51.257Z,103.50
2023-02-04T06:35:21.016Z,115.60
2023-02-04T06:37:49.681Z,97.97
2023-02-04T06:40:18.496Z,116.20
2023-02-04T06:42:47.157Z,114.93
2023-02-04T06:45:15.644Z,119.73
2023-02-04T06:47:44.264Z,123.20
2023-02-04T06:50:12.744Z,128.83
2023-02-04T06:52:42.779Z,127.40
2023-02-04T06:55:11.157Z,120.37
2023-02-04T06:57:40.176Z,116.83
2023-02-04T07:00:11.113Z,122.63
2023-02-04T07:02:40.272Z,122.60
2023-02-04T07:05:09.121Z,135.57
2023-02-04T07:07:37.837Z,131.30
2023-02-04T07:10:08.189Z,137.50
2023-02-04T07:12:37.090Z,153.07
2023-02-04T07:15:06.350Z,118.00
2023-02-04T07:17:35.058Z,119.73
2023-02-04T07:20:03.480Z,133.13
2023-02-04T07:22:32.310Z,138.07
2023-02-04T07:25:00.661Z,147.60
2023-02-04T07:27:30.719Z,145.13
2023-02-04T07:29:59.132Z,136.60
2023-02-04T07:32:32.778Z,149.00
2023-02-04T07:35:01.505Z,120.17
2023-02-04T07:37:30.616Z,114.83
2023-02-04T07:39:59.047Z,105.30
2023-02-04T07:42:28.074Z,119.27
2023-02-04T07:45:07.604Z,105.13
2023-02-04T07:47:36.288Z,99.33
2023-02-04T07:50:04.939Z,110.70
2023-02-04T07:52:33.632Z,114.87
2023-02-04T07:55:02.105Z,109.37
2023-02-04T07:57:31.087Z,110.40
2023-02-04T07:59:59.487Z,100.53
2023-02-04T08:02:29.818Z,101.80
2023-02-04T08:04:58.368Z,114.87
2023-02-04T08:07:27.001Z,94.10
2023-02-04T08:09:55.364Z,92.17
2023-02-04T08:12:24.014Z,105.13
2023-02-04T08:14:52.859Z,96.07
2023-02-04T08:17:21.683Z,109.17
2023-02-04T08:19:51.444Z,109.90
2023-02-04T08:22:20.236Z,107.53
2023-02-04T08:24:48.625Z,97.33
2023-02-04T08:27:17.343Z,103.10
2023-02-04T08:29:45.868Z,91.67
2023-02-04T08:32:14.533Z,97.20
2023-02-04T08:34:44.046Z,97.30
2023-02-04T08:37:14.092Z,103.63
2023-02-04T08:39:46.216Z,94.97
2023-02-04T08:42:15.289Z,114.17
2023-02-04T08:44:43.932Z,111.97
2023-02-04T08:47:13.001Z,107.37
2023-02-04T08:49:41.390Z,102.13
2023-02-04T08:52:10.695Z,106.83
2023-02-04T08:54:40.502Z,114.20
2023-02-04T08:57:09.204Z,101.57
2023-02-04T08:59:37.592Z,102.50
2023-02-04T09:02:06.221Z,96.40
2023-02-04T09:04:35.056Z,92.87
2023-02-04T09:07:03.887Z,91.53
2023-02-04T09:09:32.280Z,98.03
2023-02-04T09:12:03.257Z,105.50
2023-02-04T09:14:31.728Z,111.80
2023-02-04T09:17:00.362Z,107.20
2023-02-04T09:19:28.807Z,106.93
2023-02-04T09:21:57.407Z,100.00
2023-02-04T09:24:25.794Z,103.37
2023-02-04T09:26:54.468Z,105.03
2023-02-04T09:29:24.210Z,117.53
2023-02-04T09:31:52.937Z,104.10
2023-02-04T09:34:21.368Z,106.10
2023-02-04T09:36:49.978Z,104.90
2023-02-04T09:39:18.407Z,106.70
2023-02-04T09:41:47.119Z,98.30
2023-02-04T09:44:19.130Z,106.27
2023-02-04T09:46:52.260Z,109.37
2023-02-04T09:49:20.856Z,100.83
2023-02-04T09:51:50.884Z,121.03
2023-02-04T09:54:21.555Z,109.17
2023-02-04T09:56:50.927Z,114.50
2023-02-04T09:59:21.035Z,116.87
2023-02-04T10:01:56.452Z,101.47
2023-02-04T10:04:25.685Z,102.40
2023-02-04T10:06:54.797Z,108.37
2023-02-04T10:09:23.371Z,108.03
2023-02-04T10:11:52.093Z,100.10
2023-02-04T10:14:23.910Z,115.53
2023-02-04T10:16:59.271Z,104.70
2023-02-04T10:19:29.788Z,91.40
2023-02-04T10:21:59.506Z,98.57
2023-02-04T10:24:30.635Z,92.00
2023-02-04T10:27:09.446Z,99.13
2023-02-04T10:29:38.052Z,95.07
2023-02-04T10:32:22.969Z,89.70
2023-02-04T10:34:51.404Z,93.20
2023-02-04T10:37:22.027Z,103.73
2023-02-04T10:39:50.917Z,103.27
2023-02-04T10:42:23.808Z,98.97
2023-02-04T10:44:52.806Z,100.20
2023-02-04T10:47:24.635Z,97.93
2023-02-04T10:49:58.528Z,97.73
2023-02-04T10:52:35.403Z,104.67
2023-02-04T10:55:05.381Z,120.33
2023-02-04T10:57:39.478Z,103.20
2023-02-04T11:00:16.849Z,111.47
2023-02-04T11:02:55.043Z,99.40
2023-02-04T11:05:26.361Z,103.83
2023-02-04T11:07:55.235Z,117.47
2023-02-04T11:10:25.995Z,115.50
2023-02-04T11:13:03.853Z,126.93
2023-02-04T11:15:45.281Z,109.90
2023-02-04T11:18:30.085Z,97.50
2023-02-04T11:21:00.500Z,91.27
2023-02-04T11:23:37.881Z,90.53
2023-02-04T11:26:14.518Z,97.27
2023-02-04T11:28:52.196Z,99.93
2023-02-04T11:31:42.509Z,102.43
2023-02-04T11:34:26.279Z,85.67
2023-02-04T11:37:12.216Z,93.77
2023-02-04T11:39:42.533Z,95.23
2023-02-04T11:42:23.286Z,92.97
2023-02-04T11:44:54.999Z,94.43
2023-02-04T11:47:26.695Z,88.07
2023-02-04T11:49:59.995Z,92.43
2023-02-04T11:52:28.585Z,99.03
2023-02-04T11:54:59.378Z,121.23
2023-02-04T11:57:28.614Z,96.20
2023-02-04T11:59:57.353Z,118.57
2023-02-04T12:02:27.095Z,125.03
2023-02-04T12:04:59.403Z,106.43
2023-02-04T12:07:29.673Z,100.40
2023-02-04T12:09:58.932Z,80.20
2023-02-04T12:12:30.564Z,76.03
2023-02-04T12:15:03.385Z,86.27
2023-02-04T12:17:31.988Z,78.00
2023-02-04T12:20:02.087Z,87.27
2023-02-04T12:22:30.604Z,95.00
2023-02-04T12:24:59.333Z,94.83
2023-02-04T12:27:27.713Z,103.50
2023-02-04T12:29:56.731Z,100.50
2023-02-04T12:32:25.813Z,100.73
2023-02-04T12:34:54.457Z,102.13
2023-02-04T12:37:24.183Z,97.63
2023-02-04T12:39:53.152Z,95.87
2023-02-04T12:42:21.945Z,97.60
2023-02-04T12:44:50.568Z,97.10
2023-02-04T12:47:18.991Z,82.30
2023-02-04T12:49:48.397Z,91.70
2023-02-04T12:52:16.746Z,88.23
2023-02-04T12:54:46.857Z,89.50
2023-02-04T12:57:19.675Z,111.70
2023-02-04T12:59:49.231Z,114.63
2023-02-04T13:02:17.679Z,119.17
2023-02-04T13:04:46.400Z,122.97
2023-02-04T13:07:14.832Z,108.83
2023-02-04T13:09:45.122Z,91.73
2023-02-04T13:12:15.179Z,92.23
2023-02-04T13:14:44.281Z,97.93
2023-02-04T13:17:12.700Z,98.77
2023-02-04T13:19:41.325Z,100.93
2023-02-04T13:22:09.832Z,95.67
2023-02-04T13:24:38.774Z,102.17
2023-02-04T13:27:07.567Z,100.83
2023-02-04T13:29:37.552Z,93.90
2023-02-04T13:32:06.361Z,91.30
2023-02-04T13:34:35.054Z,81.80
2023-02-04T13:37:03.567Z,73.97
2023-02-04T13:39:32.480Z,79.30
2023-02-04T13:42:00.918Z,82.03
2023-02-04T13:44:29.866Z,84.20
2023-02-04T13:46:59.613Z,89.57
2023-02-04T13:49:28.281Z,84.20
2023-02-04T13:51:56.632Z,79.63
2023-02-04T13:54:25.401Z,80.57
2023-02-04T13:56:54.189Z,77.93
2023-02-04T13:59:22.987Z,87.70
2023-02-04T14:01:51.388Z,80.93
2023-02-04T14:04:21.499Z,81.77
2023-02-04T14:06:49.955Z,83.27
2023-02-04T14:09:18.775Z,83.57
2023-02-04T14:11:47.236Z,81.73
2023-02-04T14:14:16.275Z,77.50
2023-02-04T14:16:44.699Z,76.67
2023-02-04T14:19:14.166Z,88.13
2023-02-04T14:21:43.913Z,94.83
2023-02-04T14:24:12.562Z,95.33
2023-02-04T14:26:40.935Z,77.67
2023-02-04T14:29:11.159Z,74.60
2023-02-04T14:31:39.986Z,80.97
2023-02-04T14:34:08.747Z,74.20
2023-02-04T14:36:37.265Z,78.67
2023-02-04T14:39:07.363Z,87.37
2023-02-04T14:41:35.780Z,67.37
2023-02-04T14:44:04.412Z,65.30
2023-02-04T14:46:32.904Z,91.80
2023-02-04T14:49:01.562Z,70.83
2023-02-04T14:51:29.979Z,65.83
2023-02-04T14:53:58.639Z,65.63
2023-02-04T14:56:28.399Z,67.57
2023-02-04T14:58:57.204Z,75.20
2023-02-04T15:01:27.432Z,85.17
2023-02-04T15:03:56.408Z,76.53
2023-02-04T15:06:24.826Z,68.17
2023-02-04T15:08:53.580Z,76.47
2023-02-04T15:11:22.026Z,58.03
2023-02-04T15:13:52.120Z,59.17
2023-02-04T15:16:20.547Z,65.80
2023-02-04T15:18:49.330Z,79.13
2023-02-04T15:21:18.327Z,97.67
2023-02-04T15:23:47.385Z,115.43
2023-02-04T15:26:16.278Z,127.13
2023-02-04T15:28:44.933Z,121.87
2023-02-04T15:31:15.196Z,103.60
2023-02-04T15:33:44.172Z,104.23
2023-02-04T15:36:12.603Z,116.27
2023-02-04T15:38:41.305Z,111.30
2023-02-04T15:41:09.735Z,134.70
2023-02-04T15:43:38.508Z,119.00
2023-02-04T15:46:07.102Z,118.60
2023-02-04T15:48:37.107Z,120.13
2023-02-04T15:51:05.866Z,111.27
2023-02-04T15:53:35.192Z,98.77
2023-02-04T15:56:03.540Z,92.03
2023-02-04T15:58:32.470Z,105.53
2023-02-04T16:01:01.364Z,93.97
2023-02-04T16:03:30.108Z,92.27
2023-02-04T16:05:59.865Z,87.70
2023-02-04T16:08:28.540Z,80.50
2023-02-04T16:10:57.073Z,86.70
2023-02-04T16:13:25.767Z,92.10
2023-02-04T16:15:54.181Z,89.20
2023-02-04T16:18:24.565Z,83.80
2023-02-04T16:20:52.940Z,89.10
2023-02-04T16:23:23.025Z,91.37
2023-02-04T16:25:52.021Z,96.23
2023-02-04T16:28:20.753Z,94.97
2023-02-04T16:30:49.310Z,98.67
2023-02-04T16:33:18.013Z,106.83
2023-02-04T16:36:02.020Z,121.30
2023-02-04T16:38:32.596Z,113.20
2023-02-04T16:41:01.013Z,97.23
2023-02-04T16:43:30.321Z,98.20
2023-02-04T16:45:58.832Z,96.63
2023-02-04T16:48:28.641Z,109.57
2023-02-04T16:50:57.077Z,104.43
2023-02-04T16:53:25.896Z,99.67
2023-02-04T16:55:55.898Z,107.73
2023-02-04T16:58:24.711Z,127.00
2023-02-04T17:00:53.448Z,111.43
2023-02-04T17:03:22.126Z,112.60
2023-02-04T17:05:50.616Z,138.20
2023-02-04T17:08:19.630Z,140.47
2023-02-04T17:11:05.255Z,130.80
2023-02-04T17:13:35.548Z,126.00
2023-02-04T17:16:04.244Z,119.80
2023-02-04T17:18:33.706Z,115.40
2023-02-04T17:21:04.031Z,116.33
2023-02-04T17:23:33.287Z,124.03
2023-02-04T17:26:01.672Z,119.63
2023-02-04T17:28:30.440Z,116.60
2023-02-04T17:31:00.998Z,116.97
2023-02-04T17:33:29.794Z,121.30
2023-02-04T17:35:58.140Z,120.13
2023-02-04T17:38:28.096Z,120.40
2023-02-04T17:40:56.634Z,118.10
2023-02-04T17:43:26.738Z,112.47
2023-02-04T17:45:55.155Z,105.17
2023-02-04T17:48:25.321Z,104.60
2023-02-04T17:50:54.270Z,126.40
2023-02-04T17:53:23.480Z,121.83
2023-02-04T17:55:52.097Z,112.80
2023-02-04T17:58:23.700Z,120.47
2023-02-04T18:00:53.446Z,124.17
2023-02-04T18:03:26.778Z,122.23
2023-02-04T18:05:56.812Z,120.27
2023-02-04T18:08:30.543Z,113.57
2023-02-04T18:10:59.390Z,84.23
2023-02-04T18:13:32.933Z,103.03
2023-02-04T18:16:03.841Z,102.17
2023-02-04T18:18:36.637Z,121.57
2023-02-04T18:21:19.694Z,105.97
2023-02-04T18:23:49.702Z,77.90
2023-02-04T18:26:20.257Z,115.83
2023-02-04T18:28:50.949Z,124.10
2023-02-04T18:31:35.666Z,113.23
2023-02-04T18:34:16.794Z,116.23
2023-02-04T18:36:45.714Z,202.07
2023-02-04T18:39:19.988Z,101.73
2023-02-04T18:41:50.784Z,115.13
2023-02-04T18:44:30.250Z,126.87
2023-02-04T18:46:59.144Z,123.90
2023-02-04T18:49:30.883Z,130.80
2023-02-04T18:52:06.422Z,134.97
2023-02-04T18:54:36.973Z,126.93
2023-02-04T18:57:31.949Z,131.83
2023-02-04T19:00:30.822Z,114.60
2023-02-04T19:03:01.927Z,130.43
2023-02-04T19:05:35.144Z,134.93
2023-02-04T19:08:22.280Z,141.43
2023-02-04T19:10:51.934Z,139.40
2023-02-04T19:13:23.227Z,130.17
2023-02-04T19:15:58.785Z,133.00
2023-02-04T19:18:31.240Z,129.10
2023-02-04T19:21:20.356Z,136.33
2023-02-04T19:23:49.470Z,127.60
2023-02-04T19:26:30.192Z,123.87
2023-02-04T19:28:58.835Z,122.50
2023-02-04T19:31:33.714Z,126.67
2023-02-04T19:34:13.953Z,123.83
2023-02-04T19:36:44.252Z,123.87
2023-02-04T19:39:30.720Z,116.43
2023-02-04T19:42:00.846Z,124.77
2023-02-04T19:44:35.486Z,136.60
2023-02-04T19:47:21.551Z,114.93
2023-02-04T19:49:50.188Z,123.67
2023-02-04T19:52:47.347Z,131.63
2023-02-04T19:55:42.470Z,134.83
2023-02-04T19:58:19.418Z,138.43
2023-02-04T20:00:55.878Z,138.47
2023-02-04T20:03:36.749Z,135.23
2023-02-04T20:06:32.711Z,125.60
2023-02-04T20:09:06.126Z,128.40
2023-02-04T20:11:58.160Z,137.83
2023-02-04T20:14:42.400Z,123.03
2023-02-04T20:17:23.788Z,126.23
2023-02-04T20:19:52.594Z,125.20
2023-02-04T20:22:43.089Z,143.87
2023-02-04T20:25:42.124Z,141.00
2023-02-04T20:28:20.412Z,138.27
2023-02-04T20:30:50.563Z,143.20
2023-02-04T20:33:29.412Z,165.00
2023-02-04T20:36:28.404Z,145.87
2023-02-04T20:39:07.841Z,145.87
2023-02-04T20:41:39.990Z,156.70
2023-02-04T20:44:17.121Z,138.17
2023-02-04T20:46:46.379Z,156.17
2023-02-04T20:49:22.997Z,153.83
2023-02-04T20:51:59.973Z,152.83
2023-02-04T20:54:30.433Z,171.10
2023-02-04T20:57:15.930Z,212.17
2023-02-04T20:59:45.175Z,161.03
2023-02-04T21:02:18.539Z,146.37
2023-02-04T21:04:53.580Z,139.00
2023-02-04T21:07:23.736Z,147.00
2023-02-04T21:09:52.531Z,154.37
2023-02-04T21:12:25.485Z,162.30
2023-02-04T21:14:53.944Z,165.10
2023-02-04T21:17:23.026Z,164.27
2023-02-04T21:19:51.748Z,204.17
2023-02-04T21:22:20.567Z,168.97
2023-02-04T21:24:51.395Z,155.87
2023-02-04T21:27:22.145Z,180.63
2023-02-04T21:29:52.285Z,182.73
2023-02-04T21:32:21.171Z,191.87
2023-02-04T21:34:49.640Z,184.67
2023-02-04T21:37:18.504Z,175.27
2023-02-04T21:39:46.961Z,146.73
2023-02-04T21:42:16.579Z,143.33
2023-02-04T21:44:46.215Z,123.40
2023-02-04T21:47:17.921Z,123.50
2023-02-04T21:49:47.376Z,161.03
2023-02-04T21:52:16.286Z,144.77
2023-02-04T21:54:44.917Z,136.83
2023-02-04T21:57:16.387Z,138.13
2023-02-04T21:59:48.397Z,137.97
2023-02-04T22:02:19.094Z,153.53
2023-02-04T22:04:47.665Z,147.50
2023-02-04T22:07:16.523Z,138.40
2023-02-04T22:09:45.265Z,139.80
2023-02-04T22:12:14.143Z,138.53
2023-02-04T22:14:42.583Z,122.17
2023-02-04T22:17:11.468Z,94.97
2023-02-04T22:19:44.061Z,134.60
2023-02-04T22:22:12.847Z,134.87
2023-02-04T22:24:41.204Z,133.20
2023-02-04T22:27:10.197Z,126.00
2023-02-04T22:29:38.891Z,126.00
2023-02-04T22:32:07.586Z,101.37
2023-02-04T22:34:36.403Z,95.13
2023-02-04T22:37:06.635Z,124.83
2023-02-04T22:39:35.959Z,126.03
2023-02-04T22:42:06.484Z,131.50
2023-02-04T22:44:36.926Z,101.17
2023-02-04T22:47:06.349Z,122.73
2023-02-04T22:49:35.784Z,100.17
2023-02-04T22:52:06.471Z,90.70
2023-02-04T22:54:35.052Z,95.77
2023-02-04T22:57:03.668Z,92.13
2023-02-04T22:59:32.105Z,78.13
2023-02-04T23:02:00.763Z,94.10
2023-02-04T23:04:29.197Z,105.50
2023-02-04T23:06:58.025Z,116.93
2023-02-04T23:09:28.287Z,108.83
2023-02-04T23:11:58.061Z,78.77
2023-02-04T23:14:26.647Z,93.33
2023-02-04T23:16:55.347Z,99.17
2023-02-04T23:19:23.816Z,99.60
2023-02-04T23:21:52.524Z,88.57
2023-02-04T23:24:21.020Z,81.77
2023-02-04T23:26:51.035Z,77.90
2023-02-04T23:29:19.488Z,94.93
2023-02-04T23:31:48.242Z,96.50
2023-02-04T23:34:16.610Z,71.77
2023-02-04T23:36:46.602Z,61.37
2023-02-04T23:39:15.020Z,66.27
2023-02-04T23:41:43.711Z,77.07
2023-02-04T23:44:13.436Z,66.37
2023-02-04T23:46:42.960Z,68.27
2023-02-04T23:49:11.598Z,72.67
2023-02-04T23:51:40.343Z,74.43
2023-02-04T23:54:08.934Z,83.57
2023-02-04T23:56:37.565Z,68.80
2023-02-04T23:59:06.726Z,73.50
